sensor_id;sensor_type;location;lat;lon;timestamp;P1;durP1;ratioP1;P2;durP2;ratioP2
76292;SDS011;67256;51.154;4.164;2023-05-07T00:00:02;15.43;;;8.50;;
76292;SDS011;67256;51.154;4.164;2023-05-07T00:02:28;12.10;;;8.68;;
76292;SDS011;67256;51.154;4.164;2023-05-07T00:04:54;15.50;;;8.60;;
76292;SDS011;67256;51.154;4.164;2023-05-07T00:07:20;19.05;;;9.50;;
76292;SDS011;67256;51.154;4.164;2023-05-07T00:09:46;16.17;;;8.27;;
76292;SDS011;67256;51.154;4.164;2023-05-07T00:12:11;16.00;;;10.75;;
76292;SDS011;67256;51.154;4.164;2023-05-07T00:14:37;20.00;;;12.98;;
76292;SDS011;67256;51.154;4.164;2023-05-07T00:17:03;15.15;;;11.23;;
76292;SDS011;67256;51.154;4.164;2023-05-07T00:19:29;19.92;;;11.18;;
76292;SDS011;67256;51.154;4.164;2023-05-07T00:21:55;17.15;;;11.30;;
76292;SDS011;67256;51.154;4.164;2023-05-07T00:24:21;16.75;;;11.48;;
76292;SDS011;67256;51.154;4.164;2023-05-07T00:26:47;15.18;;;10.10;;
76292;SDS011;67256;51.154;4.164;2023-05-07T00:29:13;13.40;;;9.40;;
76292;SDS011;67256;51.154;4.164;2023-05-07T00:31:39;15.02;;;9.68;;
76292;SDS011;67256;51.154;4.164;2023-05-07T00:34:04;16.20;;;9.63;;
76292;SDS011;67256;51.154;4.164;2023-05-07T00:36:31;13.02;;;9.65;;
76292;SDS011;67256;51.154;4.164;2023-05-07T00:38:57;15.57;;;9.82;;
76292;SDS011;67256;51.154;4.164;2023-05-07T00:41:25;13.90;;;10.30;;
76292;SDS011;67256;51.154;4.164;2023-05-07T00:43:51;15.40;;;9.23;;
76292;SDS011;67256;51.154;4.164;2023-05-07T00:46:17;15.70;;;9.38;;
76292;SDS011;67256;51.154;4.164;2023-05-07T00:48:44;12.98;;;9.65;;
76292;SDS011;67256;51.154;4.164;2023-05-07T00:51:13;12.45;;;9.18;;
76292;SDS011;67256;51.154;4.164;2023-05-07T00:53:39;12.45;;;9.43;;
76292;SDS011;67256;51.154;4.164;2023-05-07T00:56:05;13.57;;;8.43;;
76292;SDS011;67256;51.154;4.164;2023-05-07T00:58:32;16.63;;;9.63;;
76292;SDS011;67256;51.154;4.164;2023-05-07T01:00:59;17.20;;;8.52;;
76292;SDS011;67256;51.154;4.164;2023-05-07T01:03:24;14.55;;;8.82;;
76292;SDS011;67256;51.154;4.164;2023-05-07T01:05:50;14.88;;;8.48;;
76292;SDS011;67256;51.154;4.164;2023-05-07T01:08:18;14.23;;;8.75;;
76292;SDS011;67256;51.154;4.164;2023-05-07T01:10:43;13.35;;;8.43;;
76292;SDS011;67256;51.154;4.164;2023-05-07T01:13:10;14.90;;;8.95;;
76292;SDS011;67256;51.154;4.164;2023-05-07T01:15:38;14.90;;;9.50;;
76292;SDS011;67256;51.154;4.164;2023-05-07T01:18:06;14.93;;;8.85;;
76292;SDS011;67256;51.154;4.164;2023-05-07T01:20:32;13.02;;;9.63;;
76292;SDS011;67256;51.154;4.164;2023-05-07T01:22:58;15.07;;;9.57;;
76292;SDS011;67256;51.154;4.164;2023-05-07T01:25:25;16.42;;;9.23;;
76292;SDS011;67256;51.154;4.164;2023-05-07T01:27:51;13.40;;;8.93;;
76292;SDS011;67256;51.154;4.164;2023-05-07T01:30:17;16.25;;;8.68;;
76292;SDS011;67256;51.154;4.164;2023-05-07T01:35:19;14.80;;;8.50;;
76292;SDS011;67256;51.154;4.164;2023-05-07T01:37:47;12.88;;;9.25;;
76292;SDS011;67256;51.154;4.164;2023-05-07T01:40:14;14.15;;;9.35;;
76292;SDS011;67256;51.154;4.164;2023-05-07T01:42:41;16.05;;;9.38;;
76292;SDS011;67256;51.154;4.164;2023-05-07T01:45:08;16.05;;;9.75;;
76292;SDS011;67256;51.154;4.164;2023-05-07T01:47:35;10.63;;;9.20;;
76292;SDS011;67256;51.154;4.164;2023-05-07T01:50:02;15.75;;;10.10;;
76292;SDS011;67256;51.154;4.164;2023-05-07T01:52:30;14.45;;;8.85;;
76292;SDS011;67256;51.154;4.164;2023-05-07T01:54:56;19.80;;;10.13;;
76292;SDS011;67256;51.154;4.164;2023-05-07T01:57:22;10.77;;;9.10;;
76292;SDS011;67256;51.154;4.164;2023-05-07T01:59:48;11.52;;;9.40;;
76292;SDS011;67256;51.154;4.164;2023-05-07T02:02:13;19.17;;;9.93;;
76292;SDS011;67256;51.154;4.164;2023-05-07T02:04:39;15.65;;;10.55;;
76292;SDS011;67256;51.154;4.164;2023-05-07T02:07:05;11.88;;;8.82;;
76292;SDS011;67256;51.154;4.164;2023-05-07T02:09:30;11.82;;;8.82;;
76292;SDS011;67256;51.154;4.164;2023-05-07T02:11:56;13.63;;;9.70;;
76292;SDS011;67256;51.154;4.164;2023-05-07T02:14:22;15.32;;;9.13;;
76292;SDS011;67256;51.154;4.164;2023-05-07T02:16:47;12.55;;;8.82;;
76292;SDS011;67256;51.154;4.164;2023-05-07T02:19:13;12.65;;;9.25;;
76292;SDS011;67256;51.154;4.164;2023-05-07T02:21:39;16.33;;;9.88;;
76292;SDS011;67256;51.154;4.164;2023-05-07T02:24:05;12.32;;;9.70;;
76292;SDS011;67256;51.154;4.164;2023-05-07T02:26:31;13.73;;;9.57;;
76292;SDS011;67256;51.154;4.164;2023-05-07T02:28:57;12.95;;;9.40;;
76292;SDS011;67256;51.154;4.164;2023-05-07T02:31:22;15.00;;;8.65;;
76292;SDS011;67256;51.154;4.164;2023-05-07T02:33:48;14.25;;;10.27;;
76292;SDS011;67256;51.154;4.164;2023-05-07T02:36:13;19.27;;;10.65;;
76292;SDS011;67256;51.154;4.164;2023-05-07T02:38:40;15.32;;;11.02;;
76292;SDS011;67256;51.154;4.164;2023-05-07T02:41:06;14.15;;;9.98;;
76292;SDS011;67256;51.154;4.164;2023-05-07T02:43:31;17.13;;;11.05;;
76292;SDS011;67256;51.154;4.164;2023-05-07T02:46:03;16.60;;;11.45;;
76292;SDS011;67256;51.154;4.164;2023-05-07T02:48:30;18.98;;;11.27;;
76292;SDS011;67256;51.154;4.164;2023-05-07T02:50:56;14.38;;;10.95;;
76292;SDS011;67256;51.154;4.164;2023-05-07T02:53:23;15.30;;;11.10;;
76292;SDS011;67256;51.154;4.164;2023-05-07T02:55:51;17.50;;;10.98;;
76292;SDS011;67256;51.154;4.164;2023-05-07T02:58:18;13.20;;;11.35;;
76292;SDS011;67256;51.154;4.164;2023-05-07T03:00:44;14.13;;;10.60;;
76292;SDS011;67256;51.154;4.164;2023-05-07T03:03:10;13.15;;;10.63;;
76292;SDS011;67256;51.154;4.164;2023-05-07T03:05:36;16.27;;;11.10;;
76292;SDS011;67256;51.154;4.164;2023-05-07T03:08:02;15.65;;;10.57;;
76292;SDS011;67256;51.154;4.164;2023-05-07T03:10:28;18.92;;;10.88;;
76292;SDS011;67256;51.154;4.164;2023-05-07T03:12:54;15.20;;;10.70;;
76292;SDS011;67256;51.154;4.164;2023-05-07T03:15:20;17.40;;;10.88;;
76292;SDS011;67256;51.154;4.164;2023-05-07T03:17:46;17.52;;;11.07;;
76292;SDS011;67256;51.154;4.164;2023-05-07T03:20:13;15.15;;;10.20;;
76292;SDS011;67256;51.154;4.164;2023-05-07T03:22:39;19.35;;;11.35;;
76292;SDS011;67256;51.154;4.164;2023-05-07T03:25:05;13.77;;;10.50;;
76292;SDS011;67256;51.154;4.164;2023-05-07T03:27:31;14.88;;;10.38;;
76292;SDS011;67256;51.154;4.164;2023-05-07T03:29:57;17.50;;;11.20;;
76292;SDS011;67256;51.154;4.164;2023-05-07T03:32:23;12.88;;;9.32;;
76292;SDS011;67256;51.154;4.164;2023-05-07T03:34:48;13.50;;;10.20;;
76292;SDS011;67256;51.154;4.164;2023-05-07T03:37:14;14.05;;;9.80;;
76292;SDS011;67256;51.154;4.164;2023-05-07T03:39:40;14.05;;;9.75;;
76292;SDS011;67256;51.154;4.164;2023-05-07T03:42:06;13.27;;;9.95;;
76292;SDS011;67256;51.154;4.164;2023-05-07T03:44:32;12.55;;;10.38;;
76292;SDS011;67256;51.154;4.164;2023-05-07T03:46:57;15.88;;;10.93;;
76292;SDS011;67256;51.154;4.164;2023-05-07T03:49:23;13.52;;;11.52;;
76292;SDS011;67256;51.154;4.164;2023-05-07T03:51:49;15.80;;;11.18;;
76292;SDS011;67256;51.154;4.164;2023-05-07T03:54:14;18.27;;;11.75;;
76292;SDS011;67256;51.154;4.164;2023-05-07T03:56:40;14.00;;;11.15;;
76292;SDS011;67256;51.154;4.164;2023-05-07T03:59:06;15.40;;;11.10;;
76292;SDS011;67256;51.154;4.164;2023-05-07T04:01:32;14.98;;;12.68;;
76292;SDS011;67256;51.154;4.164;2023-05-07T04:03:58;17.25;;;11.85;;
76292;SDS011;67256;51.154;4.164;2023-05-07T04:06:24;15.52;;;12.38;;
76292;SDS011;67256;51.154;4.164;2023-05-07T04:08:50;17.02;;;13.00;;
76292;SDS011;67256;51.154;4.164;2023-05-07T04:11:16;15.65;;;12.73;;
76292;SDS011;67256;51.154;4.164;2023-05-07T04:13:41;17.98;;;12.27;;
76292;SDS011;67256;51.154;4.164;2023-05-07T04:16:07;19.80;;;14.20;;
76292;SDS011;67256;51.154;4.164;2023-05-07T04:18:33;18.52;;;12.85;;
76292;SDS011;67256;51.154;4.164;2023-05-07T04:20:59;20.55;;;13.13;;
76292;SDS011;67256;51.154;4.164;2023-05-07T04:23:25;19.65;;;13.38;;
76292;SDS011;67256;51.154;4.164;2023-05-07T04:25:50;16.42;;;13.95;;
76292;SDS011;67256;51.154;4.164;2023-05-07T04:28:16;19.35;;;14.15;;
76292;SDS011;67256;51.154;4.164;2023-05-07T04:30:42;19.50;;;13.30;;
76292;SDS011;67256;51.154;4.164;2023-05-07T04:33:07;21.30;;;14.43;;
76292;SDS011;67256;51.154;4.164;2023-05-07T04:35:33;17.80;;;13.18;;
76292;SDS011;67256;51.154;4.164;2023-05-07T04:37:59;18.83;;;13.65;;
76292;SDS011;67256;51.154;4.164;2023-05-07T04:40:25;18.70;;;13.65;;
76292;SDS011;67256;51.154;4.164;2023-05-07T04:42:51;17.20;;;13.40;;
76292;SDS011;67256;51.154;4.164;2023-05-07T04:45:18;19.42;;;14.73;;
76292;SDS011;67256;51.154;4.164;2023-05-07T04:47:43;19.95;;;13.13;;
76292;SDS011;67256;51.154;4.164;2023-05-07T04:50:09;18.50;;;13.43;;
76292;SDS011;67256;51.154;4.164;2023-05-07T04:52:35;15.73;;;13.60;;
76292;SDS011;67256;51.154;4.164;2023-05-07T04:55:01;19.48;;;13.23;;
76292;SDS011;67256;51.154;4.164;2023-05-07T04:57:27;19.00;;;12.77;;
76292;SDS011;67256;51.154;4.164;2023-05-07T04:59:53;15.52;;;12.55;;
76292;SDS011;67256;51.154;4.164;2023-05-07T05:02:19;15.88;;;13.18;;
76292;SDS011;67256;51.154;4.164;2023-05-07T05:04:45;15.30;;;13.40;;
76292;SDS011;67256;51.154;4.164;2023-05-07T05:07:10;17.77;;;13.75;;
76292;SDS011;67256;51.154;4.164;2023-05-07T05:09:36;19.65;;;13.85;;
76292;SDS011;67256;51.154;4.164;2023-05-07T05:12:02;16.90;;;14.05;;
76292;SDS011;67256;51.154;4.164;2023-05-07T05:14:28;17.70;;;14.10;;
76292;SDS011;67256;51.154;4.164;2023-05-07T05:16:54;18.27;;;13.60;;
76292;SDS011;67256;51.154;4.164;2023-05-07T05:19:20;19.77;;;13.18;;
76292;SDS011;67256;51.154;4.164;2023-05-07T05:21:45;20.52;;;13.95;;
76292;SDS011;67256;51.154;4.164;2023-05-07T05:24:11;15.93;;;13.85;;
76292;SDS011;67256;51.154;4.164;2023-05-07T05:26:37;16.27;;;14.18;;
76292;SDS011;67256;51.154;4.164;2023-05-07T05:29:02;14.38;;;12.70;;
76292;SDS011;67256;51.154;4.164;2023-05-07T05:31:28;15.80;;;13.15;;
76292;SDS011;67256;51.154;4.164;2023-05-07T05:33:53;16.45;;;13.93;;
76292;SDS011;67256;51.154;4.164;2023-05-07T05:36:19;19.55;;;16.58;;
76292;SDS011;67256;51.154;4.164;2023-05-07T05:38:45;15.68;;;14.05;;
76292;SDS011;67256;51.154;4.164;2023-05-07T05:41:12;16.73;;;14.25;;
76292;SDS011;67256;51.154;4.164;2023-05-07T05:43:38;20.20;;;14.48;;
76292;SDS011;67256;51.154;4.164;2023-05-07T05:46:03;17.90;;;14.88;;
76292;SDS011;67256;51.154;4.164;2023-05-07T05:48:29;18.63;;;15.32;;
76292;SDS011;67256;51.154;4.164;2023-05-07T05:50:55;18.13;;;14.75;;
76292;SDS011;67256;51.154;4.164;2023-05-07T05:53:21;20.50;;;13.95;;
76292;SDS011;67256;51.154;4.164;2023-05-07T05:55:46;16.63;;;14.15;;
76292;SDS011;67256;51.154;4.164;2023-05-07T05:58:12;18.55;;;14.10;;
76292;SDS011;67256;51.154;4.164;2023-05-07T06:00:40;20.00;;;14.02;;
76292;SDS011;67256;51.154;4.164;2023-05-07T06:03:05;17.42;;;13.68;;
76292;SDS011;67256;51.154;4.164;2023-05-07T06:05:31;16.88;;;15.13;;
76292;SDS011;67256;51.154;4.164;2023-05-07T06:07:57;16.92;;;14.25;;
76292;SDS011;67256;51.154;4.164;2023-05-07T06:10:22;16.58;;;14.02;;
76292;SDS011;67256;51.154;4.164;2023-05-07T06:12:49;19.52;;;14.35;;
76292;SDS011;67256;51.154;4.164;2023-05-07T06:15:14;17.63;;;14.82;;
76292;SDS011;67256;51.154;4.164;2023-05-07T06:17:40;20.48;;;15.30;;
76292;SDS011;67256;51.154;4.164;2023-05-07T06:20:07;17.02;;;13.43;;
76292;SDS011;67256;51.154;4.164;2023-05-07T06:22:33;17.90;;;13.48;;
76292;SDS011;67256;51.154;4.164;2023-05-07T06:24:58;16.27;;;13.30;;
76292;SDS011;67256;51.154;4.164;2023-05-07T06:27:24;18.58;;;13.55;;
76292;SDS011;67256;51.154;4.164;2023-05-07T06:29:50;16.15;;;13.20;;
76292;SDS011;67256;51.154;4.164;2023-05-07T06:32:15;17.40;;;13.63;;
76292;SDS011;67256;51.154;4.164;2023-05-07T06:34:42;16.60;;;13.50;;
76292;SDS011;67256;51.154;4.164;2023-05-07T06:37:07;18.52;;;12.55;;
76292;SDS011;67256;51.154;4.164;2023-05-07T06:39:33;18.13;;;12.80;;
76292;SDS011;67256;51.154;4.164;2023-05-07T06:42:00;17.52;;;11.75;;
76292;SDS011;67256;51.154;4.164;2023-05-07T06:44:26;17.83;;;11.77;;
76292;SDS011;67256;51.154;4.164;2023-05-07T06:46:51;13.85;;;10.27;;
76292;SDS011;67256;51.154;4.164;2023-05-07T06:49:17;16.15;;;10.57;;
76292;SDS011;67256;51.154;4.164;2023-05-07T06:51:43;15.82;;;10.98;;
76292;SDS011;67256;51.154;4.164;2023-05-07T06:54:08;15.70;;;10.30;;
76292;SDS011;67256;51.154;4.164;2023-05-07T06:56:34;14.48;;;9.23;;
76292;SDS011;67256;51.154;4.164;2023-05-07T06:59:01;16.98;;;9.43;;
76292;SDS011;67256;51.154;4.164;2023-05-07T07:01:27;11.73;;;7.88;;
76292;SDS011;67256;51.154;4.164;2023-05-07T07:03:53;12.18;;;7.30;;
76292;SDS011;67256;51.154;4.164;2023-05-07T07:06:19;10.90;;;8.20;;
76292;SDS011;67256;51.154;4.164;2023-05-07T07:08:45;12.75;;;7.68;;
76292;SDS011;67256;51.154;4.164;2023-05-07T07:11:11;13.07;;;7.70;;
76292;SDS011;67256;51.154;4.164;2023-05-07T07:13:36;12.32;;;7.53;;
76292;SDS011;67256;51.154;4.164;2023-05-07T07:16:02;13.10;;;7.72;;
76292;SDS011;67256;51.154;4.164;2023-05-07T07:18:28;13.35;;;7.00;;
76292;SDS011;67256;51.154;4.164;2023-05-07T07:20:54;14.07;;;7.15;;
76292;SDS011;67256;51.154;4.164;2023-05-07T07:23:19;12.57;;;6.68;;
76292;SDS011;67256;51.154;4.164;2023-05-07T07:25:45;14.95;;;6.93;;
76292;SDS011;67256;51.154;4.164;2023-05-07T07:28:11;14.25;;;6.85;;
76292;SDS011;67256;51.154;4.164;2023-05-07T07:30:37;12.88;;;6.30;;
76292;SDS011;67256;51.154;4.164;2023-05-07T07:33:03;16.13;;;7.22;;
76292;SDS011;67256;51.154;4.164;2023-05-07T07:35:29;14.77;;;8.13;;
76292;SDS011;67256;51.154;4.164;2023-05-07T07:37:55;12.30;;;6.78;;
76292;SDS011;67256;51.154;4.164;2023-05-07T07:40:21;11.77;;;6.68;;
76292;SDS011;67256;51.154;4.164;2023-05-07T07:42:47;16.58;;;7.38;;
76292;SDS011;67256;51.154;4.164;2023-05-07T07:45:12;13.07;;;8.23;;
76292;SDS011;67256;51.154;4.164;2023-05-07T07:47:41;13.77;;;6.78;;
76292;SDS011;67256;51.154;4.164;2023-05-07T07:50:07;11.02;;;6.90;;
76292;SDS011;67256;51.154;4.164;2023-05-07T07:52:33;10.63;;;6.68;;
76292;SDS011;67256;51.154;4.164;2023-05-07T07:54:59;12.50;;;6.95;;
76292;SDS011;67256;51.154;4.164;2023-05-07T07:57:25;10.63;;;6.97;;
76292;SDS011;67256;51.154;4.164;2023-05-07T07:59:50;9.98;;;7.00;;
76292;SDS011;67256;51.154;4.164;2023-05-07T08:02:16;12.80;;;7.10;;
76292;SDS011;67256;51.154;4.164;2023-05-07T08:04:42;15.30;;;7.53;;
76292;SDS011;67256;51.154;4.164;2023-05-07T08:07:09;10.75;;;6.88;;
76292;SDS011;67256;51.154;4.164;2023-05-07T08:09:35;16.67;;;7.65;;
76292;SDS011;67256;51.154;4.164;2023-05-07T08:12:01;11.93;;;6.32;;
76292;SDS011;67256;51.154;4.164;2023-05-07T08:14:27;9.68;;;5.93;;
76292;SDS011;67256;51.154;4.164;2023-05-07T08:16:53;8.95;;;6.03;;
76292;SDS011;67256;51.154;4.164;2023-05-07T08:19:19;12.20;;;5.47;;
76292;SDS011;67256;51.154;4.164;2023-05-07T08:21:47;10.40;;;5.68;;
76292;SDS011;67256;51.154;4.164;2023-05-07T08:24:16;9.73;;;4.95;;
76292;SDS011;67256;51.154;4.164;2023-05-07T08:26:42;10.80;;;5.97;;
76292;SDS011;67256;51.154;4.164;2023-05-07T08:29:09;12.13;;;5.32;;
76292;SDS011;67256;51.154;4.164;2023-05-07T08:31:35;9.30;;;4.72;;
76292;SDS011;67256;51.154;4.164;2023-05-07T08:34:00;12.38;;;4.55;;
76292;SDS011;67256;51.154;4.164;2023-05-07T08:36:26;9.18;;;5.00;;
76292;SDS011;67256;51.154;4.164;2023-05-07T08:38:53;8.88;;;4.82;;
76292;SDS011;67256;51.154;4.164;2023-05-07T08:41:19;12.00;;;5.32;;
76292;SDS011;67256;51.154;4.164;2023-05-07T08:43:49;8.65;;;4.68;;
76292;SDS011;67256;51.154;4.164;2023-05-07T08:46:19;6.30;;;4.05;;
76292;SDS011;67256;51.154;4.164;2023-05-07T08:48:50;9.45;;;4.60;;
76292;SDS011;67256;51.154;4.164;2023-05-07T08:51:17;8.68;;;4.80;;
76292;SDS011;67256;51.154;4.164;2023-05-07T08:53:45;10.50;;;5.40;;
76292;SDS011;67256;51.154;4.164;2023-05-07T08:56:13;10.70;;;4.28;;
76292;SDS011;67256;51.154;4.164;2023-05-07T08:58:41;10.48;;;4.13;;
76292;SDS011;67256;51.154;4.164;2023-05-07T09:01:12;10.80;;;5.03;;
76292;SDS011;67256;51.154;4.164;2023-05-07T09:03:39;9.00;;;4.68;;
76292;SDS011;67256;51.154;4.164;2023-05-07T09:06:06;10.52;;;4.97;;
76292;SDS011;67256;51.154;4.164;2023-05-07T09:08:32;14.90;;;5.40;;
76292;SDS011;67256;51.154;4.164;2023-05-07T09:10:59;10.07;;;4.75;;
76292;SDS011;67256;51.154;4.164;2023-05-07T09:13:25;8.80;;;4.30;;
76292;SDS011;67256;51.154;4.164;2023-05-07T09:15:52;8.82;;;4.10;;
76292;SDS011;67256;51.154;4.164;2023-05-07T09:18:17;12.77;;;4.53;;
76292;SDS011;67256;51.154;4.164;2023-05-07T09:20:43;8.10;;;4.80;;
76292;SDS011;67256;51.154;4.164;2023-05-07T09:23:09;7.63;;;4.03;;
76292;SDS011;67256;51.154;4.164;2023-05-07T09:25:35;10.93;;;4.40;;
76292;SDS011;67256;51.154;4.164;2023-05-07T09:28:02;7.05;;;4.05;;
76292;SDS011;67256;51.154;4.164;2023-05-07T09:30:29;8.65;;;4.55;;
76292;SDS011;67256;51.154;4.164;2023-05-07T09:32:56;8.30;;;4.45;;
76292;SDS011;67256;51.154;4.164;2023-05-07T09:35:24;9.40;;;5.32;;
76292;SDS011;67256;51.154;4.164;2023-05-07T09:37:52;9.90;;;4.53;;
76292;SDS011;67256;51.154;4.164;2023-05-07T09:40:20;12.07;;;5.50;;
76292;SDS011;67256;51.154;4.164;2023-05-07T09:45:15;12.98;;;4.95;;
76292;SDS011;67256;51.154;4.164;2023-05-07T09:47:46;9.27;;;5.05;;
76292;SDS011;67256;51.154;4.164;2023-05-07T09:50:14;8.80;;;4.47;;
76292;SDS011;67256;51.154;4.164;2023-05-07T09:52:41;12.18;;;5.38;;
76292;SDS011;67256;51.154;4.164;2023-05-07T09:55:08;10.48;;;5.90;;
76292;SDS011;67256;51.154;4.164;2023-05-07T09:57:35;9.57;;;4.68;;
76292;SDS011;67256;51.154;4.164;2023-05-07T10:00:03;11.70;;;4.70;;
76292;SDS011;67256;51.154;4.164;2023-05-07T10:02:29;7.93;;;4.32;;
76292;SDS011;67256;51.154;4.164;2023-05-07T10:04:56;14.23;;;4.03;;
76292;SDS011;67256;51.154;4.164;2023-05-07T10:07:25;14.30;;;4.73;;
76292;SDS011;67256;51.154;4.164;2023-05-07T10:09:51;13.05;;;4.80;;
76292;SDS011;67256;51.154;4.164;2023-05-07T10:12:18;9.25;;;4.28;;
76292;SDS011;67256;51.154;4.164;2023-05-07T10:14:44;7.93;;;4.38;;
76292;SDS011;67256;51.154;4.164;2023-05-07T10:17:11;9.57;;;5.15;;
76292;SDS011;67256;51.154;4.164;2023-05-07T10:19:39;8.98;;;4.47;;
76292;SDS011;67256;51.154;4.164;2023-05-07T10:22:05;10.18;;;5.05;;
76292;SDS011;67256;51.154;4.164;2023-05-07T10:24:33;8.93;;;4.30;;
76292;SDS011;67256;51.154;4.164;2023-05-07T10:27:01;6.25;;;3.67;;
76292;SDS011;67256;51.154;4.164;2023-05-07T10:29:52;8.68;;;4.45;;
76292;SDS011;67256;51.154;4.164;2023-05-07T10:34:50;10.63;;;3.85;;
76292;SDS011;67256;51.154;4.164;2023-05-07T10:37:20;6.72;;;3.53;;
76292;SDS011;67256;51.154;4.164;2023-05-07T10:39:46;10.63;;;3.40;;
76292;SDS011;67256;51.154;4.164;2023-05-07T10:42:14;8.82;;;3.30;;
76292;SDS011;67256;51.154;4.164;2023-05-07T10:44:39;7.22;;;3.65;;
76292;SDS011;67256;51.154;4.164;2023-05-07T10:47:09;10.27;;;3.50;;
76292;SDS011;67256;51.154;4.164;2023-05-07T10:49:36;6.40;;;3.67;;
76292;SDS011;67256;51.154;4.164;2023-05-07T10:54:40;6.85;;;3.17;;
76292;SDS011;67256;51.154;4.164;2023-05-07T10:57:55;5.50;;;3.53;;
76292;SDS011;67256;51.154;4.164;2023-05-07T11:00:01;7.22;;;3.78;;
76292;SDS011;67256;51.154;4.164;2023-05-07T11:05:28;9.27;;;3.28;;
76292;SDS011;67256;51.154;4.164;2023-05-07T11:07:55;5.28;;;2.78;;
76292;SDS011;67256;51.154;4.164;2023-05-07T11:13:17;3.97;;;2.08;;
76292;SDS011;67256;51.154;4.164;2023-05-07T11:15:44;4.93;;;2.33;;
76292;SDS011;67256;51.154;4.164;2023-05-07T11:18:15;7.63;;;2.72;;
76292;SDS011;67256;51.154;4.164;2023-05-07T11:28:31;6.72;;;3.10;;
76292;SDS011;67256;51.154;4.164;2023-05-07T11:31:02;5.72;;;2.65;;
76292;SDS011;67256;51.154;4.164;2023-05-07T11:33:28;7.70;;;2.75;;
76292;SDS011;67256;51.154;4.164;2023-05-07T11:35:55;4.45;;;2.33;;
76292;SDS011;67256;51.154;4.164;2023-05-07T11:38:21;5.80;;;2.70;;
76292;SDS011;67256;51.154;4.164;2023-05-07T11:40:58;6.95;;;3.03;;
76292;SDS011;67256;51.154;4.164;2023-05-07T11:43:29;5.90;;;3.17;;
76292;SDS011;67256;51.154;4.164;2023-05-07T11:45:54;4.80;;;2.67;;
76292;SDS011;67256;51.154;4.164;2023-05-07T11:48:29;5.38;;;2.63;;
76292;SDS011;67256;51.154;4.164;2023-05-07T11:53:27;7.20;;;2.70;;
76292;SDS011;67256;51.154;4.164;2023-05-07T11:55:56;6.10;;;2.63;;
76292;SDS011;67256;51.154;4.164;2023-05-07T11:58:22;5.93;;;2.90;;
76292;SDS011;67256;51.154;4.164;2023-05-07T12:00:49;6.18;;;3.20;;
76292;SDS011;67256;51.154;4.164;2023-05-07T12:03:16;5.57;;;2.95;;
76292;SDS011;67256;51.154;4.164;2023-05-07T12:05:43;4.78;;;2.55;;
76292;SDS011;67256;51.154;4.164;2023-05-07T12:08:13;9.85;;;3.45;;
76292;SDS011;67256;51.154;4.164;2023-05-07T12:10:43;6.03;;;2.95;;
76292;SDS011;67256;51.154;4.164;2023-05-07T12:15:44;5.38;;;2.65;;
76292;SDS011;67256;51.154;4.164;2023-05-07T12:18:13;6.53;;;2.63;;
76292;SDS011;67256;51.154;4.164;2023-05-07T12:20:39;6.13;;;2.73;;
76292;SDS011;67256;51.154;4.164;2023-05-07T12:23:05;4.97;;;2.30;;
76292;SDS011;67256;51.154;4.164;2023-05-07T12:25:31;5.47;;;2.30;;
76292;SDS011;67256;51.154;4.164;2023-05-07T12:28:00;5.93;;;2.60;;
76292;SDS011;67256;51.154;4.164;2023-05-07T12:30:26;4.03;;;2.40;;
76292;SDS011;67256;51.154;4.164;2023-05-07T12:32:53;4.18;;;2.28;;
76292;SDS011;67256;51.154;4.164;2023-05-07T12:35:32;7.63;;;2.85;;
76292;SDS011;67256;51.154;4.164;2023-05-07T12:38:08;5.15;;;2.22;;
76292;SDS011;67256;51.154;4.164;2023-05-07T12:40:40;4.95;;;2.30;;
76292;SDS011;67256;51.154;4.164;2023-05-07T12:43:08;6.03;;;2.83;;
76292;SDS011;67256;51.154;4.164;2023-05-07T12:45:41;3.78;;;2.03;;
76292;SDS011;67256;51.154;4.164;2023-05-07T12:48:07;6.45;;;2.30;;
76292;SDS011;67256;51.154;4.164;2023-05-07T12:50:35;7.43;;;2.47;;
76292;SDS011;67256;51.154;4.164;2023-05-07T12:53:00;5.50;;;2.35;;
76292;SDS011;67256;51.154;4.164;2023-05-07T12:55:31;3.15;;;1.80;;
76292;SDS011;67256;51.154;4.164;2023-05-07T12:57:57;3.85;;;1.95;;
76292;SDS011;67256;51.154;4.164;2023-05-07T13:00:38;4.13;;;2.08;;
76292;SDS011;67256;51.154;4.164;2023-05-07T13:03:06;4.32;;;2.05;;
76292;SDS011;67256;51.154;4.164;2023-05-07T13:05:32;4.07;;;2.00;;
76292;SDS011;67256;51.154;4.164;2023-05-07T13:07:57;5.53;;;1.98;;
76292;SDS011;67256;51.154;4.164;2023-05-07T13:10:23;4.15;;;1.77;;
76292;SDS011;67256;51.154;4.164;2023-05-07T13:12:49;5.03;;;2.30;;
76292;SDS011;67256;51.154;4.164;2023-05-07T13:15:16;5.15;;;1.75;;
76292;SDS011;67256;51.154;4.164;2023-05-07T13:17:42;3.15;;;1.77;;
76292;SDS011;67256;51.154;4.164;2023-05-07T13:20:11;5.90;;;1.92;;
76292;SDS011;67256;51.154;4.164;2023-05-07T13:22:42;5.75;;;2.17;;
76292;SDS011;67256;51.154;4.164;2023-05-07T13:25:07;4.85;;;2.08;;
76292;SDS011;67256;51.154;4.164;2023-05-07T13:27:33;4.07;;;2.00;;
76292;SDS011;67256;51.154;4.164;2023-05-07T13:30:05;5.10;;;1.97;;
76292;SDS011;67256;51.154;4.164;2023-05-07T13:32:31;4.55;;;2.03;;
76292;SDS011;67256;51.154;4.164;2023-05-07T13:34:57;8.50;;;3.05;;
76292;SDS011;67256;51.154;4.164;2023-05-07T13:37:23;4.22;;;1.92;;
76292;SDS011;67256;51.154;4.164;2023-05-07T13:39:48;5.60;;;1.90;;
76292;SDS011;67256;51.154;4.164;2023-05-07T13:42:14;3.90;;;1.63;;
76292;SDS011;67256;51.154;4.164;2023-05-07T13:44:40;5.32;;;1.85;;
76292;SDS011;67256;51.154;4.164;2023-05-07T13:47:05;4.15;;;1.83;;
76292;SDS011;67256;51.154;4.164;2023-05-07T13:49:31;4.32;;;1.88;;
76292;SDS011;67256;51.154;4.164;2023-05-07T13:51:57;4.32;;;2.13;;
76292;SDS011;67256;51.154;4.164;2023-05-07T13:54:22;3.35;;;2.15;;
76292;SDS011;67256;51.154;4.164;2023-05-07T13:56:48;3.85;;;1.90;;
76292;SDS011;67256;51.154;4.164;2023-05-07T13:59:14;3.28;;;1.70;;
76292;SDS011;67256;51.154;4.164;2023-05-07T14:01:40;3.15;;;1.80;;
76292;SDS011;67256;51.154;4.164;2023-05-07T14:04:06;3.00;;;1.60;;
76292;SDS011;67256;51.154;4.164;2023-05-07T14:06:32;5.75;;;1.80;;
76292;SDS011;67256;51.154;4.164;2023-05-07T14:08:59;4.35;;;2.10;;
76292;SDS011;67256;51.154;4.164;2023-05-07T14:11:25;4.45;;;2.15;;
76292;SDS011;67256;51.154;4.164;2023-05-07T14:13:50;5.18;;;2.38;;
76292;SDS011;67256;51.154;4.164;2023-05-07T14:16:16;7.25;;;2.55;;
76292;SDS011;67256;51.154;4.164;2023-05-07T14:18:42;3.55;;;2.05;;
76292;SDS011;67256;51.154;4.164;2023-05-07T14:21:08;4.35;;;2.30;;
76292;SDS011;67256;51.154;4.164;2023-05-07T14:23:36;2.97;;;1.90;;
76292;SDS011;67256;51.154;4.164;2023-05-07T14:26:02;5.22;;;2.00;;
76292;SDS011;67256;51.154;4.164;2023-05-07T14:28:28;6.78;;;2.33;;
76292;SDS011;67256;51.154;4.164;2023-05-07T14:30:53;5.82;;;2.13;;
76292;SDS011;67256;51.154;4.164;2023-05-07T14:33:19;3.60;;;1.98;;
76292;SDS011;67256;51.154;4.164;2023-05-07T14:35:45;5.18;;;2.28;;
76292;SDS011;67256;51.154;4.164;2023-05-07T14:38:13;5.18;;;2.83;;
76292;SDS011;67256;51.154;4.164;2023-05-07T14:40:40;3.72;;;2.08;;
76292;SDS011;67256;51.154;4.164;2023-05-07T14:43:06;4.68;;;2.05;;
76292;SDS011;67256;51.154;4.164;2023-05-07T14:45:31;3.17;;;1.60;;
76292;SDS011;67256;51.154;4.164;2023-05-07T14:47:57;3.30;;;1.60;;
76292;SDS011;67256;51.154;4.164;2023-05-07T14:50:23;3.60;;;1.55;;
76292;SDS011;67256;51.154;4.164;2023-05-07T14:52:48;5.63;;;2.10;;
76292;SDS011;67256;51.154;4.164;2023-05-07T14:55:14;1.98;;;1.38;;
76292;SDS011;67256;51.154;4.164;2023-05-07T14:57:40;3.78;;;1.85;;
76292;SDS011;67256;51.154;4.164;2023-05-07T15:00:06;5.38;;;2.22;;